sensor_id;sensor_type;location;lat;lon;timestamp;temperature;humidity
19968;DHT22;10145;49.152;9.282;2023-02-24T00:00:09;8.60;99.90
19968;DHT22;10145;49.152;9.282;2023-02-24T00:02:55;8.60;99.90
19968;DHT22;10145;49.152;9.282;2023-02-24T00:05:20;8.60;99.90
19968;DHT22;10145;49.152;9.282;2023-02-24T00:07:48;8.60;99.90
19968;DHT22;10145;49.152;9.282;2023-02-24T00:10:14;8.60;99.90
19968;DHT22;10145;49.152;9.282;2023-02-24T00:12:46;8.60;99.90
19968;DHT22;10145;49.152;9.282;2023-02-24T00:15:13;8.60;99.90
19968;DHT22;10145;49.152;9.282;2023-02-24T00:17:39;8.60;99.90
19968;DHT22;10145;49.152;9.282;2023-02-24T00:20:05;8.60;99.90
19968;DHT22;10145;49.152;9.282;2023-02-24T00:22:32;8.60;99.90
19968;DHT22;10145;49.152;9.282;2023-02-24T00:24:57;8.60;99.90
19968;DHT22;10145;49.152;9.282;2023-02-24T00:27:27;8.50;99.90
19968;DHT22;10145;49.152;9.282;2023-02-24T00:29:52;8.50;99.90
19968;DHT22;10145;49.152;9.282;2023-02-24T00:32:18;8.60;99.90
19968;DHT22;10145;49.152;9.282;2023-02-24T00:34:43;8.50;99.90
19968;DHT22;10145;49.152;9.282;2023-02-24T00:37:09;8.60;99.90
19968;DHT22;10145;49.152;9.282;2023-02-24T00:39:37;8.50;99.90
19968;DHT22;10145;49.152;9.282;2023-02-24T00:42:05;8.60;99.90
19968;DHT22;10145;49.152;9.282;2023-02-24T00:44:37;8.50;99.90
19968;DHT22;10145;49.152;9.282;2023-02-24T00:47:04;8.60;99.90
19968;DHT22;10145;49.152;9.282;2023-02-24T00:49:31;8.50;99.90
19968;DHT22;10145;49.152;9.282;2023-02-24T00:51:57;8.50;99.90
19968;DHT22;10145;49.152;9.282;2023-02-24T00:54:23;8.50;99.90
19968;DHT22;10145;49.152;9.282;2023-02-24T00:56:52;8.50;99.90
19968;DHT22;10145;49.152;9.282;2023-02-24T00:59:18;8.40;99.90
19968;DHT22;10145;49.152;9.282;2023-02-24T01:01:45;8.50;99.90
19968;DHT22;10145;49.152;9.282;2023-02-24T01:04:12;8.50;99.90
19968;DHT22;10145;49.152;9.282;2023-02-24T01:06:42;8.50;99.90
19968;DHT22;10145;49.152;9.282;2023-02-24T01:09:11;8.50;99.90
19968;DHT22;10145;49.152;9.282;2023-02-24T01:11:38;8.50;99.90
19968;DHT22;10145;49.152;9.282;2023-02-24T01:14:25;8.50;99.90
19968;DHT22;10145;49.152;9.282;2023-02-24T01:16:52;8.50;99.90
19968;DHT22;10145;49.152;9.282;2023-02-24T01:19:19;8.50;99.90
19968;DHT22;10145;49.152;9.282;2023-02-24T01:21:46;8.40;99.90
19968;DHT22;10145;49.152;9.282;2023-02-24T01:24:12;8.40;99.90
19968;DHT22;10145;49.152;9.282;2023-02-24T01:26:40;8.40;99.90
19968;DHT22;10145;49.152;9.282;2023-02-24T01:29:06;8.40;99.90
19968;DHT22;10145;49.152;9.282;2023-02-24T01:31:38;8.40;99.90
19968;DHT22;10145;49.152;9.282;2023-02-24T01:34:07;8.40;99.90
19968;DHT22;10145;49.152;9.282;2023-02-24T01:36:36;8.40;99.90
19968;DHT22;10145;49.152;9.282;2023-02-24T01:39:02;8.40;99.90
19968;DHT22;10145;49.152;9.282;2023-02-24T01:41:29;8.30;99.90
19968;DHT22;10145;49.152;9.282;2023-02-24T01:44:07;8.30;99.90
19968;DHT22;10145;49.152;9.282;2023-02-24T01:46:54;8.30;99.90
19968;DHT22;10145;49.152;9.282;2023-02-24T01:49:27;8.30;99.90
19968;DHT22;10145;49.152;9.282;2023-02-24T01:52:24;8.20;99.90
19968;DHT22;10145;49.152;9.282;2023-02-24T01:54:58;8.20;99.90
19968;DHT22;10145;49.152;9.282;2023-02-24T01:57:28;8.20;99.90
19968;DHT22;10145;49.152;9.282;2023-02-24T01:59:56;8.40;99.90
19968;DHT22;10145;49.152;9.282;2023-02-24T02:02:36;8.20;99.90
19968;DHT22;10145;49.152;9.282;2023-02-24T02:05:05;8.10;99.90
19968;DHT22;10145;49.152;9.282;2023-02-24T02:07:31;8.10;99.90
19968;DHT22;10145;49.152;9.282;2023-02-24T02:09:58;8.10;99.90
19968;DHT22;10145;49.152;9.282;2023-02-24T02:12:29;8.00;99.90
19968;DHT22;10145;49.152;9.282;2023-02-24T02:14:57;8.00;99.90
19968;DHT22;10145;49.152;9.282;2023-02-24T02:36:53;7.80;99.90
19968;DHT22;10145;49.152;9.282;2023-02-24T02:42:27;7.80;99.90
19968;DHT22;10145;49.152;9.282;2023-02-24T02:45:16;7.80;99.90
19968;DHT22;10145;49.152;9.282;2023-02-24T02:47:51;7.80;99.90
19968;DHT22;10145;49.152;9.282;2023-02-24T02:53:37;7.80;99.90
19968;DHT22;10145;49.152;9.282;2023-02-24T02:56:18;7.80;99.90
19968;DHT22;10145;49.152;9.282;2023-02-24T02:58:50;7.80;99.90
19968;DHT22;10145;49.152;9.282;2023-02-24T03:01:25;7.80;99.90
19968;DHT22;10145;49.152;9.282;2023-02-24T03:03:55;7.80;99.90
19968;DHT22;10145;49.152;9.282;2023-02-24T03:06:31;7.80;99.90
19968;DHT22;10145;49.152;9.282;2023-02-24T03:09:26;7.80;99.90
19968;DHT22;10145;49.152;9.282;2023-02-24T03:11:59;7.80;99.90
19968;DHT22;10145;49.152;9.282;2023-02-24T03:14:31;7.80;99.90
19968;DHT22;10145;49.152;9.282;2023-02-24T03:17:06;7.80;99.90
19968;DHT22;10145;49.152;9.282;2023-02-24T03:19:35;7.70;99.90
19968;DHT22;10145;49.152;9.282;2023-02-24T03:22:10;7.70;99.90
19968;DHT22;10145;49.152;9.282;2023-02-24T03:24:41;7.80;99.90
19968;DHT22;10145;49.152;9.282;2023-02-24T03:29:51;7.80;99.90
19968;DHT22;10145;49.152;9.282;2023-02-24T03:32:28;7.80;99.90
19968;DHT22;10145;49.152;9.282;2023-02-24T03:37:31;7.90;99.90
19968;DHT22;10145;49.152;9.282;2023-02-24T03:40:02;7.90;99.90
19968;DHT22;10145;49.152;9.282;2023-02-24T03:42:33;7.80;99.90
19968;DHT22;10145;49.152;9.282;2023-02-24T03:44:59;7.80;99.90
19968;DHT22;10145;49.152;9.282;2023-02-24T03:47:25;7.80;99.90
19968;DHT22;10145;49.152;9.282;2023-02-24T03:49:52;7.80;99.90
19968;DHT22;10145;49.152;9.282;2023-02-24T03:52:32;7.80;99.90
19968;DHT22;10145;49.152;9.282;2023-02-24T03:58:19;7.80;99.90
19968;DHT22;10145;49.152;9.282;2023-02-24T04:03:36;7.80;99.90
19968;DHT22;10145;49.152;9.282;2023-02-24T04:06:12;7.90;99.90
19968;DHT22;10145;49.152;9.282;2023-02-24T04:08:50;7.90;99.90
19968;DHT22;10145;49.152;9.282;2023-02-24T04:11:26;7.90;99.90
19968;DHT22;10145;49.152;9.282;2023-02-24T04:14:07;7.90;99.90
19968;DHT22;10145;49.152;9.282;2023-02-24T04:16:43;7.90;99.90
19968;DHT22;10145;49.152;9.282;2023-02-24T04:19:17;7.90;99.90
19968;DHT22;10145;49.152;9.282;2023-02-24T04:21:45;7.90;99.90
19968;DHT22;10145;49.152;9.282;2023-02-24T04:24:13;7.90;99.90
19968;DHT22;10145;49.152;9.282;2023-02-24T04:26:43;7.80;99.90
19968;DHT22;10145;49.152;9.282;2023-02-24T04:29:11;7.80;99.90
19968;DHT22;10145;49.152;9.282;2023-02-24T04:31:44;7.80;99.90
19968;DHT22;10145;49.152;9.282;2023-02-24T04:34:10;7.80;99.90
19968;DHT22;10145;49.152;9.282;2023-02-24T04:36:37;7.80;99.90
19968;DHT22;10145;49.152;9.282;2023-02-24T04:39:03;7.80;99.90
19968;DHT22;10145;49.152;9.282;2023-02-24T04:41:29;7.80;99.90
19968;DHT22;10145;49.152;9.282;2023-02-24T04:43:55;7.90;99.90
19968;DHT22;10145;49.152;9.282;2023-02-24T04:46:20;7.90;99.90
19968;DHT22;10145;49.152;9.282;2023-02-24T04:48:47;7.90;99.90
19968;DHT22;10145;49.152;9.282;2023-02-24T04:51:15;7.90;99.90
19968;DHT22;10145;49.152;9.282;2023-02-24T04:53:40;7.90;99.90
19968;DHT22;10145;49.152;9.282;2023-02-24T04:56:07;7.90;99.90
19968;DHT22;10145;49.152;9.282;2023-02-24T04:58:37;7.90;99.90
19968;DHT22;10145;49.152;9.282;2023-02-24T05:01:08;7.90;99.90
19968;DHT22;10145;49.152;9.282;2023-02-24T05:03:38;7.90;99.90
19968;DHT22;10145;49.152;9.282;2023-02-24T05:06:07;7.90;99.90
19968;DHT22;10145;49.152;9.282;2023-02-24T05:08:38;7.90;99.90
19968;DHT22;10145;49.152;9.282;2023-02-24T05:11:04;7.90;99.90
19968;DHT22;10145;49.152;9.282;2023-02-24T05:13:30;7.90;99.90
19968;DHT22;10145;49.152;9.282;2023-02-24T05:16:07;7.90;99.90
19968;DHT22;10145;49.152;9.282;2023-02-24T05:18:33;7.90;99.90
19968;DHT22;10145;49.152;9.282;2023-02-24T05:21:10;7.90;99.90
19968;DHT22;10145;49.152;9.282;2023-02-24T05:23:55;7.90;99.90
19968;DHT22;10145;49.152;9.282;2023-02-24T05:26:23;7.90;99.90
19968;DHT22;10145;49.152;9.282;2023-02-24T05:28:53;7.90;99.90
19968;DHT22;10145;49.152;9.282;2023-02-24T05:31:23;7.90;99.90
19968;DHT22;10145;49.152;9.282;2023-02-24T05:33:59;7.90;99.90
19968;DHT22;10145;49.152;9.282;2023-02-24T05:36:31;7.90;99.90
19968;DHT22;10145;49.152;9.282;2023-02-24T05:38:57;7.90;99.90
19968;DHT22;10145;49.152;9.282;2023-02-24T05:41:25;7.90;99.90
19968;DHT22;10145;49.152;9.282;2023-02-24T05:44:00;7.80;99.90
19968;DHT22;10145;49.152;9.282;2023-02-24T05:46:56;7.90;99.90
19968;DHT22;10145;49.152;9.282;2023-02-24T05:49:30;7.90;99.90
19968;DHT22;10145;49.152;9.282;2023-02-24T05:52:00;7.90;99.90
19968;DHT22;10145;49.152;9.282;2023-02-24T05:54:28;7.90;99.90
19968;DHT22;10145;49.152;9.282;2023-02-24T05:56:58;7.90;99.90
19968;DHT22;10145;49.152;9.282;2023-02-24T05:59:25;7.90;99.90
19968;DHT22;10145;49.152;9.282;2023-02-24T06:01:57;7.90;99.90
19968;DHT22;10145;49.152;9.282;2023-02-24T06:04:24;7.90;99.90
19968;DHT22;10145;49.152;9.282;2023-02-24T06:07:16;7.90;99.90
19968;DHT22;10145;49.152;9.282;2023-02-24T06:09:50;7.90;99.90
19968;DHT22;10145;49.152;9.282;2023-02-24T06:12:19;7.90;99.90
19968;DHT22;10145;49.152;9.282;2023-02-24T06:14:45;7.90;99.90
19968;DHT22;10145;49.152;9.282;2023-02-24T06:17:12;7.90;99.90
19968;DHT22;10145;49.152;9.282;2023-02-24T06:19:39;7.90;99.90
19968;DHT22;10145;49.152;9.282;2023-02-24T06:22:05;7.90;99.90
19968;DHT22;10145;49.152;9.282;2023-02-24T06:24:35;7.90;99.90
19968;DHT22;10145;49.152;9.282;2023-02-24T06:27:00;7.90;99.90
19968;DHT22;10145;49.152;9.282;2023-02-24T06:29:37;7.80;99.90
19968;DHT22;10145;49.152;9.282;2023-02-24T06:32:03;7.80;99.90
19968;DHT22;10145;49.152;9.282;2023-02-24T06:34:38;7.80;99.90
19968;DHT22;10145;49.152;9.282;2023-02-24T06:37:06;7.80;99.90
19968;DHT22;10145;49.152;9.282;2023-02-24T06:39:32;7.80;99.90
19968;DHT22;10145;49.152;9.282;2023-02-24T06:41:59;7.90;99.90
19968;DHT22;10145;49.152;9.282;2023-02-24T06:44:34;7.90;99.90
19968;DHT22;10145;49.152;9.282;2023-02-24T06:47:03;7.90;99.90
19968;DHT22;10145;49.152;9.282;2023-02-24T06:49:29;7.90;99.90
19968;DHT22;10145;49.152;9.282;2023-02-24T06:51:55;7.90;99.90
19968;DHT22;10145;49.152;9.282;2023-02-24T06:54:23;7.90;99.90
19968;DHT22;10145;49.152;9.282;2023-02-24T06:56:50;7.90;99.90
19968;DHT22;10145;49.152;9.282;2023-02-24T06:59:16;7.90;99.90
19968;DHT22;10145;49.152;9.282;2023-02-24T07:01:46;7.90;99.90
19968;DHT22;10145;49.152;9.282;2023-02-24T07:04:13;7.90;99.90
19968;DHT22;10145;49.152;9.282;2023-02-24T07:06:40;7.90;99.90
19968;DHT22;10145;49.152;9.282;2023-02-24T07:09:09;7.90;99.90
19968;DHT22;10145;49.152;9.282;2023-02-24T07:11:37;7.90;99.90
19968;DHT22;10145;49.152;9.282;2023-02-24T07:14:06;7.90;99.90
19968;DHT22;10145;49.152;9.282;2023-02-24T07:16:32;7.90;99.90
19968;DHT22;10145;49.152;9.282;2023-02-24T07:19:00;7.90;99.90
19968;DHT22;10145;49.152;9.282;2023-02-24T07:21:29;8.00;99.90
19968;DHT22;10145;49.152;9.282;2023-02-24T07:23:55;8.00;99.90
19968;DHT22;10145;49.152;9.282;2023-02-24T07:26:23;8.00;99.90
19968;DHT22;10145;49.152;9.282;2023-02-24T07:28:50;8.00;99.90
19968;DHT22;10145;49.152;9.282;2023-02-24T07:31:18;8.00;99.90
19968;DHT22;10145;49.152;9.282;2023-02-24T07:33:45;8.10;99.90
19968;DHT22;10145;49.152;9.282;2023-02-24T07:36:14;8.10;99.90
19968;DHT22;10145;49.152;9.282;2023-02-24T07:38:41;8.10;99.90
19968;DHT22;10145;49.152;9.282;2023-02-24T07:41:08;8.10;99.90
19968;DHT22;10145;49.152;9.282;2023-02-24T07:43:38;8.10;99.90
19968;DHT22;10145;49.152;9.282;2023-02-24T07:46:05;8.10;99.90
19968;DHT22;10145;49.152;9.282;2023-02-24T07:48:32;8.10;99.90
19968;DHT22;10145;49.152;9.282;2023-02-24T07:50:59;8.10;99.90
19968;DHT22;10145;49.152;9.282;2023-02-24T07:53:25;8.20;99.90
19968;DHT22;10145;49.152;9.282;2023-02-24T07:55:52;8.20;99.90
19968;DHT22;10145;49.152;9.282;2023-02-24T07:58:18;8.20;99.90
19968;DHT22;10145;49.152;9.282;2023-02-24T08:00:45;8.30;99.90
19968;DHT22;10145;49.152;9.282;2023-02-24T08:03:33;8.30;99.90
19968;DHT22;10145;49.152;9.282;2023-02-24T08:06:02;8.30;99.90
19968;DHT22;10145;49.152;9.282;2023-02-24T08:08:43;8.30;99.90
19968;DHT22;10145;49.152;9.282;2023-02-24T08:11:27;8.30;99.90
19968;DHT22;10145;49.152;9.282;2023-02-24T08:14:00;8.30;99.90
19968;DHT22;10145;49.152;9.282;2023-02-24T08:16:30;8.30;99.90
19968;DHT22;10145;49.152;9.282;2023-02-24T08:19:05;8.30;99.90
19968;DHT22;10145;49.152;9.282;2023-02-24T08:21:30;8.40;99.90
19968;DHT22;10145;49.152;9.282;2023-02-24T08:24:04;8.50;99.90
19968;DHT22;10145;49.152;9.282;2023-02-24T08:26:29;8.40;99.90
19968;DHT22;10145;49.152;9.282;2023-02-24T08:28:56;8.50;99.90
19968;DHT22;10145;49.152;9.282;2023-02-24T08:31:22;8.40;99.90
19968;DHT22;10145;49.152;9.282;2023-02-24T08:33:48;8.30;99.90
19968;DHT22;10145;49.152;9.282;2023-02-24T08:36:15;8.20;99.90
19968;DHT22;10145;49.152;9.282;2023-02-24T08:38:45;8.30;99.90
19968;DHT22;10145;49.152;9.282;2023-02-24T08:41:19;8.20;99.90
19968;DHT22;10145;49.152;9.282;2023-02-24T08:43:53;8.20;99.90
19968;DHT22;10145;49.152;9.282;2023-02-24T08:46:22;8.30;99.90
19968;DHT22;10145;49.152;9.282;2023-02-24T08:48:51;8.30;99.90
19968;DHT22;10145;49.152;9.282;2023-02-24T08:51:29;8.30;99.90
19968;DHT22;10145;49.152;9.282;2023-02-24T08:53:57;8.30;99.90
19968;DHT22;10145;49.152;9.282;2023-02-24T08:56:25;8.20;99.90
19968;DHT22;10145;49.152;9.282;2023-02-24T08:58:57;8.20;99.90
19968;DHT22;10145;49.152;9.282;2023-02-24T09:01:26;8.20;99.90
19968;DHT22;10145;49.152;9.282;2023-02-24T09:03:59;8.20;99.90
19968;DHT22;10145;49.152;9.282;2023-02-24T09:09:02;8.20;99.90
19968;DHT22;10145;49.152;9.282;2023-02-24T09:11:58;8.20;99.90
19968;DHT22;10145;49.152;9.282;2023-02-24T09:14:26;8.10;99.90
19968;DHT22;10145;49.152;9.282;2023-02-24T09:16:52;8.10;99.90
19968;DHT22;10145;49.152;9.282;2023-02-24T09:19:35;8.10;99.90
19968;DHT22;10145;49.152;9.282;2023-02-24T09:22:21;8.10;99.90
19968;DHT22;10145;49.152;9.282;2023-02-24T09:25:08;8.10;99.90
19968;DHT22;10145;49.152;9.282;2023-02-24T09:27:54;8.10;99.90
19968;DHT22;10145;49.152;9.282;2023-02-24T09:30:33;8.00;99.90
19968;DHT22;10145;49.152;9.282;2023-02-24T09:35:34;7.90;99.90
19968;DHT22;10145;49.152;9.282;2023-02-24T09:38:04;7.90;99.90
19968;DHT22;10145;49.152;9.282;2023-02-24T09:40:32;7.90;99.90
19968;DHT22;10145;49.152;9.282;2023-02-24T09:43:15;8.00;99.90
19968;DHT22;10145;49.152;9.282;2023-02-24T09:45:51;8.20;99.90
19968;DHT22;10145;49.152;9.282;2023-02-24T09:48:29;8.40;99.90
19968;DHT22;10145;49.152;9.282;2023-02-24T09:50:56;8.50;99.90
19968;DHT22;10145;49.152;9.282;2023-02-24T09:53:35;8.60;99.90
19968;DHT22;10145;49.152;9.282;2023-02-24T09:56:09;8.60;99.90
19968;DHT22;10145;49.152;9.282;2023-02-24T09:58:51;8.50;99.90
19968;DHT22;10145;49.152;9.282;2023-02-24T10:01:28;8.50;99.90
19968;DHT22;10145;49.152;9.282;2023-02-24T10:06:51;8.90;99.90
19968;DHT22;10145;49.152;9.282;2023-02-24T10:09:40;9.00;99.90
19968;DHT22;10145;49.152;9.282;2023-02-24T10:12:17;9.30;99.90
19968;DHT22;10145;49.152;9.282;2023-02-24T10:14:55;9.10;99.90
19968;DHT22;10145;49.152;9.282;2023-02-24T10:17:41;9.10;99.90
19968;DHT22;10145;49.152;9.282;2023-02-24T10:20:16;9.10;99.90
19968;DHT22;10145;49.152;9.282;2023-02-24T10:23:16;9.10;99.90
19968;DHT22;10145;49.152;9.282;2023-02-24T10:25:58;9.20;99.90
19968;DHT22;10145;49.152;9.282;2023-02-24T10:28:37;9.50;99.90
19968;DHT22;10145;49.152;9.282;2023-02-24T10:31:09;9.80;99.90
19968;DHT22;10145;49.152;9.282;2023-02-24T10:33:56;10.10;99.90
19968;DHT22;10145;49.152;9.282;2023-02-24T10:36:24;10.00;99.90
19968;DHT22;10145;49.152;9.282;2023-02-24T10:39:24;10.00;99.90
19968;DHT22;10145;49.152;9.282;2023-02-24T10:41:55;10.30;99.90
19968;DHT22;10145;49.152;9.282;2023-02-24T10:44:41;10.40;99.90
19968;DHT22;10145;49.152;9.282;2023-02-24T10:47:18;10.60;99.90
19968;DHT22;10145;49.152;9.282;2023-02-24T10:49:49;10.90;99.90
19968;DHT22;10145;49.152;9.282;2023-02-24T10:52:28;10.90;99.90
19968;DHT22;10145;49.152;9.282;2023-02-24T10:58:21;10.90;99.90
19968;DHT22;10145;49.152;9.282;2023-02-24T11:01:13;10.90;99.90
19968;DHT22;10145;49.152;9.282;2023-02-24T11:03:49;10.80;99.90
19968;DHT22;10145;49.152;9.282;2023-02-24T11:06:28;11.00;99.90
19968;DHT22;10145;49.152;9.282;2023-02-24T11:12:09;11.30;99.90
19968;DHT22;10145;49.152;9.282;2023-02-24T11:14:58;11.20;99.90
19968;DHT22;10145;49.152;9.282;2023-02-24T11:17:55;11.20;99.90
19968;DHT22;10145;49.152;9.282;2023-02-24T11:20:41;11.00;99.90
19968;DHT22;10145;49.152;9.282;2023-02-24T11:23:12;10.90;99.90
19968;DHT22;10145;49.152;9.282;2023-02-24T11:25:46;10.60;99.90
19968;DHT22;10145;49.152;9.282;2023-02-24T11:31:33;10.30;99.90
19968;DHT22;10145;49.152;9.282;2023-02-24T11:39:58;11.20;99.90
19968;DHT22;10145;49.152;9.282;2023-02-24T11:42:30;11.60;99.90
19968;DHT22;10145;49.152;9.282;2023-02-24T11:45:37;11.60;99.90
19968;DHT22;10145;49.152;9.282;2023-02-24T11:48:25;11.60;99.90
19968;DHT22;10145;49.152;9.282;2023-02-24T11:51:18;11.50;99.90
19968;DHT22;10145;49.152;9.282;2023-02-24T11:53:55;11.50;99.90
19968;DHT22;10145;49.152;9.282;2023-02-24T11:56:47;11.50;99.90
19968;DHT22;10145;49.152;9.282;2023-02-24T12:04:57;11.40;99.90
19968;DHT22;10145;49.152;9.282;2023-02-24T12:07:31;11.40;99.90
19968;DHT22;10145;49.152;9.282;2023-02-24T12:10:09;11.50;99.90
19968;DHT22;10145;49.152;9.282;2023-02-24T12:12:45;11.40;99.90
19968;DHT22;10145;49.152;9.282;2023-02-24T12:15:21;11.50;99.90
19968;DHT22;10145;49.152;9.282;2023-02-24T12:18:12;11.60;99.90
19968;DHT22;10145;49.152;9.282;2023-02-24T12:20:44;11.90;99.90
19968;DHT22;10145;49.152;9.282;2023-02-24T12:23:15;11.80;99.90
19968;DHT22;10145;49.152;9.282;2023-02-24T12:34:42;11.40;99.90
19968;DHT22;10145;49.152;9.282;2023-02-24T12:37:26;11.20;99.90
19968;DHT22;10145;49.152;9.282;2023-02-24T12:40:08;11.00;99.90
19968;DHT22;10145;49.152;9.282;2023-02-24T12:45:47;10.90;99.90
19968;DHT22;10145;49.152;9.282;2023-02-24T12:50:59;10.50;99.90
19968;DHT22;10145;49.152;9.282;2023-02-24T12:53:30;10.60;99.90
19968;DHT22;10145;49.152;9.282;2023-02-24T12:56:01;10.70;99.90
19968;DHT22;10145;49.152;9.282;2023-02-24T12:58:35;10.90;99.90
19968;DHT22;10145;49.152;9.282;2023-02-24T13:01:21;11.20;99.90
19968;DHT22;10145;49.152;9.282;2023-02-24T13:07:08;11.60;99.90
19968;DHT22;10145;49.152;9.282;2023-02-24T13:15:03;12.80;99.90
19968;DHT22;10145;49.152;9.282;2023-02-24T13:17:29;13.00;99.90
19968;DHT22;10145;49.152;9.282;2023-02-24T13:19:55;12.70;99.90
19968;DHT22;10145;49.152;9.282;2023-02-24T13:22:27;12.70;99.90
19968;DHT22;10145;49.152;9.282;2023-02-24T13:27:24;12.10;99.90
19968;DHT22;10145;49.152;9.282;2023-02-24T13:29:52;12.30;99.90
19968;DHT22;10145;49.152;9.282;2023-02-24T13:32:34;12.70;99.90
19968;DHT22;10145;49.152;9.282;2023-02-24T13:37:38;13.10;99.90
19968;DHT22;10145;49.152;9.282;2023-02-24T13:45:21;12.20;99.90
19968;DHT22;10145;49.152;9.282;2023-02-24T13:56:48;12.40;99.90
19968;DHT22;10145;49.152;9.282;2023-02-24T13:59:51;12.20;99.90
19968;DHT22;10145;49.152;9.282;2023-02-24T14:02:21;12.30;99.90
19968;DHT22;10145;49.152;9.282;2023-02-24T14:04:52;12.50;99.90
19968;DHT22;10145;49.152;9.282;2023-02-24T14:07:25;12.20;99.90
19968;DHT22;10145;49.152;9.282;2023-02-24T14:09:55;12.00;99.90
19968;DHT22;10145;49.152;9.282;2023-02-24T14:12:27;11.90;99.90
19968;DHT22;10145;49.152;9.282;2023-02-24T14:14:55;11.80;99.90
19968;DHT22;10145;49.152;9.282;2023-02-24T14:17:30;11.80;99.90
19968;DHT22;10145;49.152;9.282;2023-02-24T14:22:43;11.80;99.90
19968;DHT22;10145;49.152;9.282;2023-02-24T14:25:10;11.90;99.90
19968;DHT22;10145;49.152;9.282;2023-02-24T14:27:36;11.90;99.90
19968;DHT22;10145;49.152;9.282;2023-02-24T14:30:03;11.90;99.90
19968;DHT22;10145;49.152;9.282;2023-02-24T14:32:32;12.00;99.90
19968;DHT22;10145;49.152;9.282;2023-02-24T14:34:58;12.10;99.90
19968;DHT22;10145;49.152;9.282;2023-02-24T14:37:28;11.70;99.90
19968;DHT22;10145;49.152;9.282;2023-02-24T14:39:59;11.60;99.90
19968;DHT22;10145;49.152;9.282;2023-02-24T14:42:26;11.60;99.90
19968;DHT22;10145;49.152;9.282;2023-02-24T14:44:57;11.60;99.90
19968;DHT22;10145;49.152;9.282;2023-02-24T14:47:25;11.60;99.90
19968;DHT22;10145;49.152;9.282;2023-02-24T14:50:00;11.60;99.90
19968;DHT22;10145;49.152;9.282;2023-02-24T14:53:05;11.70;99.90
19968;DHT22;10145;49.152;9.282;2023-02-24T14:55:25;11.70;99.90
19968;DHT22;10145;49.152;9.282;2023-02-24T15:00:34;11.50;99.90
19968;DHT22;10145;49.152;9.282;2023-02-24T15:03:11;11.40;99.90
19968;DHT22;10145;49.152;9.282;2023-02-24T15:05:44;11.30;99.90
19968;DHT22;10145;49.152;9.282;2023-02-24T15:10:50;11.30;99.90
19968;DHT22;10145;49.152;9.282;2023-02-24T15:13:25;11.40;99.90
19968;DHT22;10145;49.152;9.282;2023-02-24T15:15:53;11.20;99.90
19968;DHT22;10145;49.152;9.282;2023-02-24T15:18:26;11.20;99.90
19968;DHT22;10145;49.152;9.282;2023-02-24T15:21:01;11.20;99.90
19968;DHT22;10145;49.152;9.282;2023-02-24T15:25:57;11.20;99.90
19968;DHT22;10145;49.152;9.282;2023-02-24T15:28:31;11.30;99.90
19968;DHT22;10145;49.152;9.282;2023-02-24T15:31:01;11.20;99.90
19968;DHT22;10145;49.152;9.282;2023-02-24T15:33:37;11.10;99.90
19968;DHT22;10145;49.152;9.282;2023-02-24T15:36:20;11.10;99.90
19968;DHT22;10145;49.152;9.282;2023-02-24T15:38:54;10.90;99.90
19968;DHT22;10145;49.152;9.282;2023-02-24T15:41:21;10.90;99.90
19968;DHT22;10145;49.152;9.282;2023-02-24T15:43:49;10.80;99.90
19968;DHT22;10145;49.152;9.282;2023-02-24T15:46:34;10.80;99.90
19968;DHT22;10145;49.152;9.282;2023-02-24T15:49:00;10.70;99.90
19968;DHT22;10145;49.152;9.282;2023-02-24T15:51:41;10.70;99.90
19968;DHT22;10145;49.152;9.282;2023-02-24T15:54:23;10.50;99.90
19968;DHT22;10145;49.152;9.282;2023-02-24T15:56:50;10.50;99.90
19968;DHT22;10145;49.152;9.282;2023-02-24T15:59:17;10.40;99.90
19968;DHT22;10145;49.152;9.282;2023-02-24T16:01:45;10.30;99.90
19968;DHT22;10145;49.152;9.282;2023-02-24T16:04:11;10.20;99.90
19968;DHT22;10145;49.152;9.282;2023-02-24T16:06:39;10.10;99.90
19968;DHT22;10145;49.152;9.282;2023-02-24T16:09:15;10.10;99.90
19968;DHT22;10145;49.152;9.282;2023-02-24T16:11:43;10.00;99.90
19968;DHT22;10145;49.152;9.282;2023-02-24T16:14:13;10.00;99.90
19968;DHT22;10145;49.152;9.282;2023-02-24T16:16:40;9.90;99.90
19968;DHT22;10145;49.152;9.282;2023-02-24T16:19:06;9.80;99.90
19968;DHT22;10145;49.152;9.282;2023-02-24T16:21:32;9.80;99.90
19968;DHT22;10145;49.152;9.282;2023-02-24T16:23:58;9.70;99.90
19968;DHT22;10145;49.152;9.282;2023-02-24T16:26:23;9.70;99.90
19968;DHT22;10145;49.152;9.282;2023-02-24T16:28:56;9.60;99.90
19968;DHT22;10145;49.152;9.282;2023-02-24T16:31:25;9.60;99.90
19968;DHT22;10145;49.152;9.282;2023-02-24T16:33:51;9.60;99.90
19968;DHT22;10145;49.152;9.282;2023-02-24T16:36:17;9.50;99.90
19968;DHT22;10145;49.152;9.282;2023-02-24T16:38:43;9.50;99.90
19968;DHT22;10145;49.152;9.282;2023-02-24T16:41:11;9.50;99.90
19968;DHT22;10145;49.152;9.282;2023-02-24T16:43:37;9.50;99.90
19968;DHT22;10145;49.152;9.282;2023-02-24T16:46:04;9.40;99.90
19968;DHT22;10145;49.152;9.282;2023-02-24T16:48:32;9.40;99.90
19968;DHT22;10145;49.152;9.282;2023-02-24T16:51:03;9.50;99.90
19968;DHT22;10145;49.152;9.282;2023-02-24T16:53:29;9.50;99.90
19968;DHT22;10145;49.152;9.282;2023-02-24T16:55:55;9.40;99.90
19968;DHT22;10145;49.152;9.282;2023-02-24T16:58:20;9.40;99.90
19968;DHT22;10145;49.152;9.282;2023-02-24T17:00:49;9.50;99.90
19968;DHT22;10145;49.152;9.282;2023-02-24T17:03:44;9.50;99.90
19968;DHT22;10145;49.152;9.282;2023-02-24T17:06:10;9.40;99.90
19968;DHT22;10145;49.152;9.282;2023-02-24T17:08:36;9.40;99.90
19968;DHT22;10145;49.152;9.282;2023-02-24T17:11:02;9.30;99.90
19968;DHT22;10145;49.152;9.282;2023-02-24T17:13:27;9.30;99.90
19968;DHT22;10145;49.152;9.282;2023-02-24T17:15:53;9.40;99.90
19968;DHT22;10145;49.152;9.282;2023-02-24T17:18:22;9.40;99.90
19968;DHT22;10145;49.152;9.282;2023-02-24T17:20:48;9.40;99.90
19968;DHT22;10145;49.152;9.282;2023-02-24T17:23:14;9.30;99.90
19968;DHT22;10145;49.152;9.282;2023-02-24T17:25:39;9.30;99.90
19968;DHT22;10145;49.152;9.282;2023-02-24T17:28:05;9.30;99.90
19968;DHT22;10145;49.152;9.282;2023-02-24T17:30:32;9.30;99.90
19968;DHT22;10145;49.152;9.282;2023-02-24T17:32:58;9.20;99.90
19968;DHT22;10145;49.152;9.282;2023-02-24T17:35:25;9.20;99.90
19968;DHT22;10145;49.152;9.282;2023-02-24T17:37:51;9.20;99.90
19968;DHT22;10145;49.152;9.282;2023-02-24T17:40:18;9.10;99.90
19968;DHT22;10145;49.152;9.282;2023-02-24T17:42:43;9.10;99.90
19968;DHT22;10145;49.152;9.282;2023-02-24T17:45:10;9.10;99.90
19968;DHT22;10145;49.152;9.282;2023-02-24T17:47:36;9.00;99.90
19968;DHT22;10145;49.152;9.282;2023-02-24T17:50:02;9.00;99.90
19968;DHT22;10145;49.152;9.282;2023-02-24T17:52:29;9.00;99.90
19968;DHT22;10145;49.152;9.282;2023-02-24T17:54:55;9.00;99.90
19968;DHT22;10145;49.152;9.282;2023-02-24T17:57:21;8.90;99.90
19968;DHT22;10145;49.152;9.282;2023-02-24T17:59:46;9.00;99.90
19968;DHT22;10145;49.152;9.282;2023-02-24T18:02:13;9.00;99.90
19968;DHT22;10145;49.152;9.282;2023-02-24T18:04:39;9.00;99.90
19968;DHT22;10145;49.152;9.282;2023-02-24T18:07:06;9.00;99.90
19968;DHT22;10145;49.152;9.282;2023-02-24T18:09:32;9.00;99.90